sensor_id;sensor_type;location;lat;lon;timestamp;P1;durP1;ratioP1;P2;durP2;ratioP2
10114;SDS011;5097;43.260;27.812;2022-08-01T00:01:54;8.70;;;6.40;;
10114;SDS011;5097;43.260;27.812;2022-08-01T00:04:38;7.80;;;7.00;;
10114;SDS011;5097;43.260;27.812;2022-08-01T00:07:23;10.32;;;6.68;;
10114;SDS011;5097;43.260;27.812;2022-08-01T00:10:08;7.90;;;7.10;;
10114;SDS011;5097;43.260;27.812;2022-08-01T00:12:54;9.60;;;7.32;;
10114;SDS011;5097;43.260;27.812;2022-08-01T00:15:37;10.13;;;8.47;;
10114;SDS011;5097;43.260;27.812;2022-08-01T00:18:25;8.63;;;7.78;;
10114;SDS011;5097;43.260;27.812;2022-08-01T00:21:09;9.43;;;8.23;;
10114;SDS011;5097;43.260;27.812;2022-08-01T00:23:54;8.50;;;7.60;;
10114;SDS011;5097;43.260;27.812;2022-08-01T00:26:38;8.70;;;7.57;;
10114;SDS011;5097;43.260;27.812;2022-08-01T00:29:24;9.77;;;8.23;;
10114;SDS011;5097;43.260;27.812;2022-08-01T00:32:29;8.27;;;7.37;;
10114;SDS011;5097;43.260;27.812;2022-08-01T00:35:13;9.00;;;7.63;;
10114;SDS011;5097;43.260;27.812;2022-08-01T00:37:58;9.37;;;8.23;;
10114;SDS011;5097;43.260;27.812;2022-08-01T00:40:44;9.33;;;8.43;;
10114;SDS011;5097;43.260;27.812;2022-08-01T00:43:28;9.00;;;8.10;;
10114;SDS011;5097;43.260;27.812;2022-08-01T00:46:12;8.80;;;7.93;;
10114;SDS011;5097;43.260;27.812;2022-08-01T00:48:56;9.37;;;8.13;;
10114;SDS011;5097;43.260;27.812;2022-08-01T00:51:40;8.32;;;7.53;;
10114;SDS011;5097;43.260;27.812;2022-08-01T00:54:24;9.77;;;7.80;;
10114;SDS011;5097;43.260;27.812;2022-08-01T00:57:11;8.93;;;8.03;;
10114;SDS011;5097;43.260;27.812;2022-08-01T00:59:56;8.40;;;7.60;;
10114;SDS011;5097;43.260;27.812;2022-08-01T01:02:41;9.83;;;8.63;;
10114;SDS011;5097;43.260;27.812;2022-08-01T01:05:25;8.73;;;7.93;;
10114;SDS011;5097;43.260;27.812;2022-08-01T01:08:11;11.03;;;8.60;;
10114;SDS011;5097;43.260;27.812;2022-08-01T01:11:01;11.27;;;10.17;;
10114;SDS011;5097;43.260;27.812;2022-08-01T01:13:52;12.40;;;9.47;;
10114;SDS011;5097;43.260;27.812;2022-08-01T01:16:41;9.00;;;8.20;;
10114;SDS011;5097;43.260;27.812;2022-08-01T01:19:28;9.40;;;8.43;;
10114;SDS011;5097;43.260;27.812;2022-08-01T01:22:22;9.50;;;8.70;;
10114;SDS011;5097;43.260;27.812;2022-08-01T01:25:26;7.65;;;6.93;;
10114;SDS011;5097;43.260;27.812;2022-08-01T01:28:27;7.88;;;7.07;;
10114;SDS011;5097;43.260;27.812;2022-08-01T01:31:18;9.73;;;8.40;;
10114;SDS011;5097;43.260;27.812;2022-08-01T01:34:04;7.47;;;6.77;;
10114;SDS011;5097;43.260;27.812;2022-08-01T01:36:51;7.00;;;6.40;;
10114;SDS011;5097;43.260;27.812;2022-08-01T01:39:37;7.77;;;7.13;;
10114;SDS011;5097;43.260;27.812;2022-08-01T01:42:35;7.57;;;6.97;;
10114;SDS011;5097;43.260;27.812;2022-08-01T01:45:20;7.70;;;7.00;;
10114;SDS011;5097;43.260;27.812;2022-08-01T01:48:06;7.73;;;7.03;;
10114;SDS011;5097;43.260;27.812;2022-08-01T01:50:52;7.50;;;6.80;;
10114;SDS011;5097;43.260;27.812;2022-08-01T01:53:38;7.70;;;7.10;;
10114;SDS011;5097;43.260;27.812;2022-08-01T01:56:24;10.83;;;8.77;;
10114;SDS011;5097;43.260;27.812;2022-08-01T01:59:10;10.00;;;9.10;;
10114;SDS011;5097;43.260;27.812;2022-08-01T02:01:55;9.70;;;7.30;;
10114;SDS011;5097;43.260;27.812;2022-08-01T02:04:51;6.83;;;6.20;;
10114;SDS011;5097;43.260;27.812;2022-08-01T02:07:37;4.77;;;4.40;;
10114;SDS011;5097;43.260;27.812;2022-08-01T02:10:23;5.87;;;5.27;;
10114;SDS011;5097;43.260;27.812;2022-08-01T02:13:09;4.30;;;3.90;;
10114;SDS011;5097;43.260;27.812;2022-08-01T02:15:53;3.77;;;3.20;;
10114;SDS011;5097;43.260;27.812;2022-08-01T02:18:41;3.53;;;3.33;;
10114;SDS011;5097;43.260;27.812;2022-08-01T02:21:28;3.93;;;3.70;;
10114;SDS011;5097;43.260;27.812;2022-08-01T02:24:29;3.73;;;3.43;;
10114;SDS011;5097;43.260;27.812;2022-08-01T02:27:21;3.90;;;3.47;;
10114;SDS011;5097;43.260;27.812;2022-08-01T02:30:12;3.40;;;3.20;;
10114;SDS011;5097;43.260;27.812;2022-08-01T02:32:58;2.90;;;2.70;;
10114;SDS011;5097;43.260;27.812;2022-08-01T02:35:51;4.57;;;3.30;;
10114;SDS011;5097;43.260;27.812;2022-08-01T02:39:02;6.03;;;3.60;;
10114;SDS011;5097;43.260;27.812;2022-08-01T02:41:52;3.57;;;3.27;;
10114;SDS011;5097;43.260;27.812;2022-08-01T02:44:41;3.77;;;3.47;;
10114;SDS011;5097;43.260;27.812;2022-08-01T02:47:26;3.63;;;3.33;;
10114;SDS011;5097;43.260;27.812;2022-08-01T02:50:12;3.33;;;3.03;;
10114;SDS011;5097;43.260;27.812;2022-08-01T02:52:58;3.77;;;3.00;;
10114;SDS011;5097;43.260;27.812;2022-08-01T02:55:46;3.40;;;3.10;;
10114;SDS011;5097;43.260;27.812;2022-08-01T02:58:30;3.10;;;2.47;;
10114;SDS011;5097;43.260;27.812;2022-08-01T03:01:16;5.47;;;2.93;;
10114;SDS011;5097;43.260;27.812;2022-08-01T03:04:02;3.90;;;2.33;;
10114;SDS011;5097;43.260;27.812;2022-08-01T03:06:48;2.67;;;2.27;;
10114;SDS011;5097;43.260;27.812;2022-08-01T03:09:35;2.57;;;2.43;;
10114;SDS011;5097;43.260;27.812;2022-08-01T03:12:24;3.13;;;2.50;;
10114;SDS011;5097;43.260;27.812;2022-08-01T03:15:10;2.97;;;2.70;;
10114;SDS011;5097;43.260;27.812;2022-08-01T03:17:56;2.40;;;2.20;;
10114;SDS011;5097;43.260;27.812;2022-08-01T03:20:43;2.60;;;2.40;;
10114;SDS011;5097;43.260;27.812;2022-08-01T03:23:28;2.37;;;2.23;;
10114;SDS011;5097;43.260;27.812;2022-08-01T03:26:19;2.50;;;2.40;;
10114;SDS011;5097;43.260;27.812;2022-08-01T03:29:05;2.97;;;2.63;;
10114;SDS011;5097;43.260;27.812;2022-08-01T03:31:50;5.33;;;3.27;;
10114;SDS011;5097;43.260;27.812;2022-08-01T03:34:35;2.70;;;2.37;;
10114;SDS011;5097;43.260;27.812;2022-08-01T03:37:21;2.40;;;2.30;;
10114;SDS011;5097;43.260;27.812;2022-08-01T03:40:08;3.03;;;2.50;;
10114;SDS011;5097;43.260;27.812;2022-08-01T03:42:56;2.30;;;2.10;;
10114;SDS011;5097;43.260;27.812;2022-08-01T03:45:48;3.00;;;2.50;;
10114;SDS011;5097;43.260;27.812;2022-08-01T03:48:37;1.93;;;1.83;;
10114;SDS011;5097;43.260;27.812;2022-08-01T03:51:25;1.90;;;1.80;;
10114;SDS011;5097;43.260;27.812;2022-08-01T03:54:08;3.53;;;2.23;;
10114;SDS011;5097;43.260;27.812;2022-08-01T03:56:54;2.20;;;2.10;;
10114;SDS011;5097;43.260;27.812;2022-08-01T03:59:38;2.67;;;2.43;;
10114;SDS011;5097;43.260;27.812;2022-08-01T04:02:25;2.27;;;2.10;;
10114;SDS011;5097;43.260;27.812;2022-08-01T04:05:10;3.80;;;2.07;;
10114;SDS011;5097;43.260;27.812;2022-08-01T04:07:54;3.90;;;1.90;;
10114;SDS011;5097;43.260;27.812;2022-08-01T04:10:38;1.90;;;1.80;;
10114;SDS011;5097;43.260;27.812;2022-08-01T04:13:22;1.90;;;1.80;;
10114;SDS011;5097;43.260;27.812;2022-08-01T04:16:10;2.40;;;2.20;;
10114;SDS011;5097;43.260;27.812;2022-08-01T04:18:55;1.70;;;1.60;;
10114;SDS011;5097;43.260;27.812;2022-08-01T04:21:39;1.48;;;1.38;;
10114;SDS011;5097;43.260;27.812;2022-08-01T04:24:23;3.83;;;1.63;;
10114;SDS011;5097;43.260;27.812;2022-08-01T04:27:13;2.13;;;1.70;;
10114;SDS011;5097;43.260;27.812;2022-08-01T04:30:20;3.63;;;1.73;;
10114;SDS011;5097;43.260;27.812;2022-08-01T04:33:09;1.88;;;1.50;;
10114;SDS011;5097;43.260;27.812;2022-08-01T04:35:56;3.17;;;1.47;;
10114;SDS011;5097;43.260;27.812;2022-08-01T04:38:48;1.10;;;1.10;;
10114;SDS011;5097;43.260;27.812;2022-08-01T04:41:34;3.80;;;1.90;;
10114;SDS011;5097;43.260;27.812;2022-08-01T04:44:19;2.28;;;1.73;;
10114;SDS011;5097;43.260;27.812;2022-08-01T04:47:04;4.45;;;1.85;;
10114;SDS011;5097;43.260;27.812;2022-08-01T04:49:50;5.93;;;1.83;;
10114;SDS011;5097;43.260;27.812;2022-08-01T04:52:36;1.30;;;1.30;;
10114;SDS011;5097;43.260;27.812;2022-08-01T04:55:24;1.88;;;1.75;;
10114;SDS011;5097;43.260;27.812;2022-08-01T04:58:08;2.92;;;2.00;;
10114;SDS011;5097;43.260;27.812;2022-08-01T05:01:02;2.55;;;1.60;;
10114;SDS011;5097;43.260;27.812;2022-08-01T05:03:46;1.75;;;1.65;;
10114;SDS011;5097;43.260;27.812;2022-08-01T05:06:30;1.42;;;1.42;;
10114;SDS011;5097;43.260;27.812;2022-08-01T05:09:16;2.65;;;1.50;;
10114;SDS011;5097;43.260;27.812;2022-08-01T05:12:00;1.73;;;1.63;;
10114;SDS011;5097;43.260;27.812;2022-08-01T05:14:46;1.80;;;1.70;;
10114;SDS011;5097;43.260;27.812;2022-08-01T05:17:30;1.70;;;1.60;;
10114;SDS011;5097;43.260;27.812;2022-08-01T05:20:14;1.58;;;1.48;;
10114;SDS011;5097;43.260;27.812;2022-08-01T05:22:58;2.30;;;1.67;;
10114;SDS011;5097;43.260;27.812;2022-08-01T05:25:44;1.83;;;1.73;;
10114;SDS011;5097;43.260;27.812;2022-08-01T05:28:39;2.25;;;1.75;;
10114;SDS011;5097;43.260;27.812;2022-08-01T05:31:23;2.75;;;2.22;;
10114;SDS011;5097;43.260;27.812;2022-08-01T05:34:07;1.63;;;1.52;;
10114;SDS011;5097;43.260;27.812;2022-08-01T05:36:56;1.70;;;1.65;;
10114;SDS011;5097;43.260;27.812;2022-08-01T05:39:40;1.73;;;1.63;;
10114;SDS011;5097;43.260;27.812;2022-08-01T05:42:26;2.05;;;1.85;;
10114;SDS011;5097;43.260;27.812;2022-08-01T05:45:10;1.88;;;1.77;;
10114;SDS011;5097;43.260;27.812;2022-08-01T05:47:54;2.10;;;2.00;;
10114;SDS011;5097;43.260;27.812;2022-08-01T05:50:38;2.40;;;1.75;;
10114;SDS011;5097;43.260;27.812;2022-08-01T05:53:22;2.00;;;1.90;;
10114;SDS011;5097;43.260;27.812;2022-08-01T05:56:06;1.75;;;1.58;;
10114;SDS011;5097;43.260;27.812;2022-08-01T05:58:51;1.60;;;1.50;;
10114;SDS011;5097;43.260;27.812;2022-08-01T06:01:35;1.58;;;1.48;;
10114;SDS011;5097;43.260;27.812;2022-08-01T06:04:19;2.00;;;1.83;;
10114;SDS011;5097;43.260;27.812;2022-08-01T06:07:03;3.50;;;1.50;;
10114;SDS011;5097;43.260;27.812;2022-08-01T06:09:47;1.83;;;1.52;;
10114;SDS011;5097;43.260;27.812;2022-08-01T06:12:32;2.35;;;1.63;;
10114;SDS011;5097;43.260;27.812;2022-08-01T06:15:18;4.88;;;1.13;;
10114;SDS011;5097;43.260;27.812;2022-08-01T06:18:02;1.00;;;0.93;;
10114;SDS011;5097;43.260;27.812;2022-08-01T06:20:47;1.30;;;1.20;;
10114;SDS011;5097;43.260;27.812;2022-08-01T06:23:31;1.45;;;1.42;;
10114;SDS011;5097;43.260;27.812;2022-08-01T06:26:17;2.47;;;1.27;;
10114;SDS011;5097;43.260;27.812;2022-08-01T06:29:01;2.83;;;1.38;;
10114;SDS011;5097;43.260;27.812;2022-08-01T06:31:47;2.40;;;1.55;;
10114;SDS011;5097;43.260;27.812;2022-08-01T06:34:30;1.40;;;1.30;;
10114;SDS011;5097;43.260;27.812;2022-08-01T06:37:14;1.88;;;1.02;;
10114;SDS011;5097;43.260;27.812;2022-08-01T06:39:59;1.15;;;1.10;;
10114;SDS011;5097;43.260;27.812;2022-08-01T06:42:44;1.98;;;1.25;;
10114;SDS011;5097;43.260;27.812;2022-08-01T06:45:28;1.30;;;1.30;;
10114;SDS011;5097;43.260;27.812;2022-08-01T06:48:14;2.30;;;1.40;;
10114;SDS011;5097;43.260;27.812;2022-08-01T06:50:58;1.42;;;1.33;;
10114;SDS011;5097;43.260;27.812;2022-08-01T06:53:50;1.02;;;1.00;;
10114;SDS011;5097;43.260;27.812;2022-08-01T06:56:35;1.27;;;1.17;;
10114;SDS011;5097;43.260;27.812;2022-08-01T06:59:19;1.50;;;1.40;;
10114;SDS011;5097;43.260;27.812;2022-08-01T07:02:03;1.75;;;1.65;;
10114;SDS011;5097;43.260;27.812;2022-08-01T07:04:50;1.65;;;1.50;;
10114;SDS011;5097;43.260;27.812;2022-08-01T07:07:34;1.23;;;1.23;;
10114;SDS011;5097;43.260;27.812;2022-08-01T07:10:18;1.50;;;1.40;;
10114;SDS011;5097;43.260;27.812;2022-08-01T07:13:02;3.50;;;1.35;;
10114;SDS011;5097;43.260;27.812;2022-08-01T07:15:46;2.20;;;1.60;;
10114;SDS011;5097;43.260;27.812;2022-08-01T07:18:30;1.17;;;1.17;;
10114;SDS011;5097;43.260;27.812;2022-08-01T07:21:15;1.30;;;1.30;;
10114;SDS011;5097;43.260;27.812;2022-08-01T07:24:19;2.78;;;1.30;;
10114;SDS011;5097;43.260;27.812;2022-08-01T07:27:03;1.67;;;1.58;;
10114;SDS011;5097;43.260;27.812;2022-08-01T07:30:05;1.15;;;1.10;;
10114;SDS011;5097;43.260;27.812;2022-08-01T07:32:50;1.00;;;1.00;;
10114;SDS011;5097;43.260;27.812;2022-08-01T07:35:34;1.38;;;1.00;;
10114;SDS011;5097;43.260;27.812;2022-08-01T07:38:21;1.30;;;1.30;;
10114;SDS011;5097;43.260;27.812;2022-08-01T07:41:05;1.17;;;1.17;;
10114;SDS011;5097;43.260;27.812;2022-08-01T07:43:49;1.13;;;1.13;;
10114;SDS011;5097;43.260;27.812;2022-08-01T07:46:40;2.25;;;1.05;;
10114;SDS011;5097;43.260;27.812;2022-08-01T07:49:24;2.80;;;1.10;;
10114;SDS011;5097;43.260;27.812;2022-08-01T07:52:08;1.10;;;1.05;;
10114;SDS011;5097;43.260;27.812;2022-08-01T07:54:54;2.25;;;0.80;;
10114;SDS011;5097;43.260;27.812;2022-08-01T07:57:38;0.88;;;0.88;;
10114;SDS011;5097;43.260;27.812;2022-08-01T08:00:22;1.02;;;1.00;;
10114;SDS011;5097;43.260;27.812;2022-08-01T08:03:06;1.20;;;1.20;;
10114;SDS011;5097;43.260;27.812;2022-08-01T08:05:50;1.20;;;1.10;;
10114;SDS011;5097;43.260;27.812;2022-08-01T08:08:41;1.08;;;1.02;;
10114;SDS011;5097;43.260;27.812;2022-08-01T08:11:27;0.60;;;0.60;;
10114;SDS011;5097;43.260;27.812;2022-08-01T08:14:11;1.88;;;1.20;;
10114;SDS011;5097;43.260;27.812;2022-08-01T08:16:55;0.88;;;0.88;;
10114;SDS011;5097;43.260;27.812;2022-08-01T08:19:40;0.63;;;0.63;;
10114;SDS011;5097;43.260;27.812;2022-08-01T08:22:24;1.05;;;1.05;;
10114;SDS011;5097;43.260;27.812;2022-08-01T08:25:08;0.88;;;0.88;;
10114;SDS011;5097;43.260;27.812;2022-08-01T08:27:55;0.98;;;0.70;;
10114;SDS011;5097;43.260;27.812;2022-08-01T08:30:38;0.85;;;0.70;;
10114;SDS011;5097;43.260;27.812;2022-08-01T08:33:22;0.90;;;0.90;;
10114;SDS011;5097;43.260;27.812;2022-08-01T08:36:06;0.88;;;0.88;;
10114;SDS011;5097;43.260;27.812;2022-08-01T08:38:50;0.90;;;0.90;;
10114;SDS011;5097;43.260;27.812;2022-08-01T08:41:34;1.17;;;1.00;;
10114;SDS011;5097;43.260;27.812;2022-08-01T08:44:20;0.90;;;0.90;;
10114;SDS011;5097;43.260;27.812;2022-08-01T08:47:04;0.90;;;0.90;;
10114;SDS011;5097;43.260;27.812;2022-08-01T08:49:51;0.90;;;0.88;;
10114;SDS011;5097;43.260;27.812;2022-08-01T08:52:37;0.80;;;0.80;;
10114;SDS011;5097;43.260;27.812;2022-08-01T08:55:23;0.80;;;0.80;;
10114;SDS011;5097;43.260;27.812;2022-08-01T08:58:08;1.17;;;0.93;;
10114;SDS011;5097;43.260;27.812;2022-08-01T09:00:55;0.85;;;0.85;;
10114;SDS011;5097;43.260;27.812;2022-08-01T09:03:40;1.13;;;1.00;;
10114;SDS011;5097;43.260;27.812;2022-08-01T09:06:24;0.85;;;0.77;;
10114;SDS011;5097;43.260;27.812;2022-08-01T09:09:09;1.05;;;0.95;;
10114;SDS011;5097;43.260;27.812;2022-08-01T09:11:54;1.27;;;0.70;;
10114;SDS011;5097;43.260;27.812;2022-08-01T09:14:43;0.70;;;0.70;;
10114;SDS011;5097;43.260;27.812;2022-08-01T09:17:38;1.17;;;1.00;;
10114;SDS011;5097;43.260;27.812;2022-08-01T09:20:23;0.70;;;0.70;;
10114;SDS011;5097;43.260;27.812;2022-08-01T09:23:07;1.02;;;1.02;;
10114;SDS011;5097;43.260;27.812;2022-08-01T09:26:15;1.10;;;0.70;;
10114;SDS011;5097;43.260;27.812;2022-08-01T09:29:03;0.95;;;0.95;;
10114;SDS011;5097;43.260;27.812;2022-08-01T09:31:48;0.70;;;0.70;;
10114;SDS011;5097;43.260;27.812;2022-08-01T09:34:36;5.55;;;2.13;;
10114;SDS011;5097;43.260;27.812;2022-08-01T09:37:23;0.88;;;0.88;;
10114;SDS011;5097;43.260;27.812;2022-08-01T09:40:18;0.77;;;0.77;;
10114;SDS011;5097;43.260;27.812;2022-08-01T09:43:10;1.23;;;0.88;;
10114;SDS011;5097;43.260;27.812;2022-08-01T09:45:56;0.80;;;0.80;;
10114;SDS011;5097;43.260;27.812;2022-08-01T09:48:42;1.00;;;1.00;;
10114;SDS011;5097;43.260;27.812;2022-08-01T09:51:40;1.20;;;1.10;;
10114;SDS011;5097;43.260;27.812;2022-08-01T09:54:42;0.90;;;0.90;;
10114;SDS011;5097;43.260;27.812;2022-08-01T09:57:36;0.82;;;0.82;;
10114;SDS011;5097;43.260;27.812;2022-08-01T10:00:20;1.05;;;0.77;;
10114;SDS011;5097;43.260;27.812;2022-08-01T10:03:25;0.90;;;0.73;;
10114;SDS011;5097;43.260;27.812;2022-08-01T10:06:21;0.80;;;0.80;;
10114;SDS011;5097;43.260;27.812;2022-08-01T10:09:07;1.00;;;1.00;;
10114;SDS011;5097;43.260;27.812;2022-08-01T10:11:51;0.88;;;0.88;;
10114;SDS011;5097;43.260;27.812;2022-08-01T10:14:38;1.13;;;0.98;;
10114;SDS011;5097;43.260;27.812;2022-08-01T10:17:27;1.35;;;0.77;;
10114;SDS011;5097;43.260;27.812;2022-08-01T10:20:31;0.90;;;0.82;;
10114;SDS011;5097;43.260;27.812;2022-08-01T10:23:18;0.98;;;0.98;;
10114;SDS011;5097;43.260;27.812;2022-08-01T10:26:04;0.90;;;0.90;;
10114;SDS011;5097;43.260;27.812;2022-08-01T10:28:49;0.60;;;0.60;;
10114;SDS011;5097;43.260;27.812;2022-08-01T10:31:34;0.75;;;0.75;;
10114;SDS011;5097;43.260;27.812;2022-08-01T10:34:21;1.05;;;0.85;;
10114;SDS011;5097;43.260;27.812;2022-08-01T10:37:10;0.95;;;0.95;;
10114;SDS011;5097;43.260;27.812;2022-08-01T10:39:56;0.70;;;0.70;;
10114;SDS011;5097;43.260;27.812;2022-08-01T10:43:02;1.00;;;0.93;;
10114;SDS011;5097;43.260;27.812;2022-08-01T10:45:47;0.90;;;0.90;;
10114;SDS011;5097;43.260;27.812;2022-08-01T10:48:34;0.77;;;0.60;;
10114;SDS011;5097;43.260;27.812;2022-08-01T10:51:26;1.15;;;1.00;;
10114;SDS011;5097;43.260;27.812;2022-08-01T10:54:37;1.05;;;1.05;;
10114;SDS011;5097;43.260;27.812;2022-08-01T10:57:43;0.77;;;0.75;;
10114;SDS011;5097;43.260;27.812;2022-08-01T11:00:35;3.47;;;1.30;;
10114;SDS011;5097;43.260;27.812;2022-08-01T11:03:29;0.82;;;0.82;;
10114;SDS011;5097;43.260;27.812;2022-08-01T11:06:42;1.65;;;1.17;;
10114;SDS011;5097;43.260;27.812;2022-08-01T11:09:40;0.85;;;0.85;;
10114;SDS011;5097;43.260;27.812;2022-08-01T11:12:37;1.30;;;1.20;;
10114;SDS011;5097;43.260;27.812;2022-08-01T11:15:25;1.80;;;1.40;;
10114;SDS011;5097;43.260;27.812;2022-08-01T11:21:19;1.00;;;0.77;;
10114;SDS011;5097;43.260;27.812;2022-08-01T11:27:42;0.65;;;0.60;;
10114;SDS011;5097;43.260;27.812;2022-08-01T11:30:30;0.95;;;0.95;;
10114;SDS011;5097;43.260;27.812;2022-08-01T11:33:15;0.98;;;0.82;;
10114;SDS011;5097;43.260;27.812;2022-08-01T11:36:17;0.90;;;0.90;;
10114;SDS011;5097;43.260;27.812;2022-08-01T11:39:23;0.85;;;0.85;;
10114;SDS011;5097;43.260;27.812;2022-08-01T11:42:17;0.95;;;0.85;;
10114;SDS011;5097;43.260;27.812;2022-08-01T11:45:03;0.85;;;0.82;;
10114;SDS011;5097;43.260;27.812;2022-08-01T11:47:48;1.08;;;1.00;;
10114;SDS011;5097;43.260;27.812;2022-08-01T11:50:34;1.58;;;0.80;;
10114;SDS011;5097;43.260;27.812;2022-08-01T11:53:21;0.80;;;0.80;;
10114;SDS011;5097;43.260;27.812;2022-08-01T11:56:07;1.20;;;1.10;;
10114;SDS011;5097;43.260;27.812;2022-08-01T11:58:58;1.98;;;0.90;;
10114;SDS011;5097;43.260;27.812;2022-08-01T12:01:42;1.65;;;1.00;;
10114;SDS011;5097;43.260;27.812;2022-08-01T12:04:26;2.53;;;1.15;;
10114;SDS011;5097;43.260;27.812;2022-08-01T12:07:28;0.93;;;0.93;;
10114;SDS011;5097;43.260;27.812;2022-08-01T12:10:16;0.88;;;0.88;;
10114;SDS011;5097;43.260;27.812;2022-08-01T12:13:03;0.77;;;0.77;;
10114;SDS011;5097;43.260;27.812;2022-08-01T12:15:48;2.28;;;1.30;;
10114;SDS011;5097;43.260;27.812;2022-08-01T12:18:38;1.42;;;1.10;;
10114;SDS011;5097;43.260;27.812;2022-08-01T12:21:22;1.00;;;0.90;;
10114;SDS011;5097;43.260;27.812;2022-08-01T12:24:06;0.75;;;0.75;;
10114;SDS011;5097;43.260;27.812;2022-08-01T12:26:52;1.75;;;0.73;;
10114;SDS011;5097;43.260;27.812;2022-08-01T12:29:37;0.77;;;0.77;;
10114;SDS011;5097;43.260;27.812;2022-08-01T12:32:24;0.90;;;0.90;;
10114;SDS011;5097;43.260;27.812;2022-08-01T12:35:18;0.88;;;0.88;;
10114;SDS011;5097;43.260;27.812;2022-08-01T12:38:05;0.80;;;0.80;;
10114;SDS011;5097;43.260;27.812;2022-08-01T12:40:51;1.38;;;1.00;;
10114;SDS011;5097;43.260;27.812;2022-08-01T12:43:37;1.98;;;1.77;;
10114;SDS011;5097;43.260;27.812;2022-08-01T12:46:21;2.53;;;1.67;;
10114;SDS011;5097;43.260;27.812;2022-08-01T12:49:08;1.20;;;1.20;;
10114;SDS011;5097;43.260;27.812;2022-08-01T12:51:54;0.93;;;0.93;;
10114;SDS011;5097;43.260;27.812;2022-08-01T12:58:03;0.98;;;0.98;;
10114;SDS011;5097;43.260;27.812;2022-08-01T13:01:04;2.90;;;1.38;;
10114;SDS011;5097;43.260;27.812;2022-08-01T13:03:57;2.60;;;0.95;;
10114;SDS011;5097;43.260;27.812;2022-08-01T13:06:42;1.00;;;1.00;;
10114;SDS011;5097;43.260;27.812;2022-08-01T13:09:26;3.22;;;1.23;;
10114;SDS011;5097;43.260;27.812;2022-08-01T13:12:10;0.90;;;0.90;;
10114;SDS011;5097;43.260;27.812;2022-08-01T13:14:55;2.78;;;1.20;;
10114;SDS011;5097;43.260;27.812;2022-08-01T13:17:40;1.15;;;1.08;;
10114;SDS011;5097;43.260;27.812;2022-08-01T13:20:28;1.13;;;1.10;;
10114;SDS011;5097;43.260;27.812;2022-08-01T13:23:17;1.75;;;1.45;;
10114;SDS011;5097;43.260;27.812;2022-08-01T13:26:36;1.38;;;1.15;;
10114;SDS011;5097;43.260;27.812;2022-08-01T13:29:21;2.50;;;1.20;;
10114;SDS011;5097;43.260;27.812;2022-08-01T13:32:12;1.15;;;1.10;;
10114;SDS011;5097;43.260;27.812;2022-08-01T13:35:13;2.20;;;1.33;;
10114;SDS011;5097;43.260;27.812;2022-08-01T13:37:56;1.70;;;1.60;;
10114;SDS011;5097;43.260;27.812;2022-08-01T13:40:40;1.58;;;1.48;;
10114;SDS011;5097;43.260;27.812;2022-08-01T13:43:24;1.27;;;1.23;;
10114;SDS011;5097;43.260;27.812;2022-08-01T13:46:28;1.40;;;1.35;;
10114;SDS011;5097;43.260;27.812;2022-08-01T13:49:13;1.88;;;1.20;;
10114;SDS011;5097;43.260;27.812;2022-08-01T13:51:59;2.08;;;1.95;;
10114;SDS011;5097;43.260;27.812;2022-08-01T13:54:43;1.52;;;1.42;;
10114;SDS011;5097;43.260;27.812;2022-08-01T13:57:28;1.90;;;1.80;;
10114;SDS011;5097;43.260;27.812;2022-08-01T14:00:18;1.90;;;1.80;;
10114;SDS011;5097;43.260;27.812;2022-08-01T14:03:02;1.52;;;1.42;;
10114;SDS011;5097;43.260;27.812;2022-08-01T14:05:46;3.85;;;2.00;;
10114;SDS011;5097;43.260;27.812;2022-08-01T14:08:41;2.20;;;1.95;;
10114;SDS011;5097;43.260;27.812;2022-08-01T14:11:28;1.70;;;1.60;;
10114;SDS011;5097;43.260;27.812;2022-08-01T14:14:18;1.95;;;1.85;;
10114;SDS011;5097;43.260;27.812;2022-08-01T14:17:02;2.40;;;2.20;;
10114;SDS011;5097;43.260;27.812;2022-08-01T14:19:46;2.00;;;1.90;;
10114;SDS011;5097;43.260;27.812;2022-08-01T14:22:30;3.00;;;1.95;;
10114;SDS011;5097;43.260;27.812;2022-08-01T14:25:15;1.98;;;1.88;;
10114;SDS011;5097;43.260;27.812;2022-08-01T14:28:20;1.77;;;1.70;;
10114;SDS011;5097;43.260;27.812;2022-08-01T14:31:05;2.63;;;1.95;;
10114;SDS011;5097;43.260;27.812;2022-08-01T14:33:50;1.90;;;1.80;;
10114;SDS011;5097;43.260;27.812;2022-08-01T14:36:33;2.30;;;2.10;;
10114;SDS011;5097;43.260;27.812;2022-08-01T14:39:20;2.28;;;2.15;;
10114;SDS011;5097;43.260;27.812;2022-08-01T14:42:08;2.60;;;2.40;;
10114;SDS011;5097;43.260;27.812;2022-08-01T14:44:51;2.72;;;2.53;;
10114;SDS011;5097;43.260;27.812;2022-08-01T14:47:35;2.30;;;2.20;;
10114;SDS011;5097;43.260;27.812;2022-08-01T14:50:20;2.78;;;2.25;;
10114;SDS011;5097;43.260;27.812;2022-08-01T14:53:04;2.42;;;2.30;;
10114;SDS011;5097;43.260;27.812;2022-08-01T14:55:48;2.92;;;2.80;;
10114;SDS011;5097;43.260;27.812;2022-08-01T14:58:33;2.60;;;2.45;;
10114;SDS011;5097;43.260;27.812;2022-08-01T15:01:17;2.85;;;2.40;;
10114;SDS011;5097;43.260;27.812;2022-08-01T15:04:01;3.13;;;2.92;;
10114;SDS011;5097;43.260;27.812;2022-08-01T15:06:50;2.78;;;2.58;;
10114;SDS011;5097;43.260;27.812;2022-08-01T15:09:35;3.47;;;3.17;;
10114;SDS011;5097;43.260;27.812;2022-08-01T15:12:19;3.10;;;2.83;;
10114;SDS011;5097;43.260;27.812;2022-08-01T15:15:04;3.22;;;3.00;;
10114;SDS011;5097;43.260;27.812;2022-08-01T15:17:50;3.13;;;2.83;;
10114;SDS011;5097;43.260;27.812;2022-08-01T15:20:34;3.10;;;2.90;;
10114;SDS011;5097;43.260;27.812;2022-08-01T15:23:18;3.30;;;3.00;;
10114;SDS011;5097;43.260;27.812;2022-08-01T15:26:03;3.15;;;2.95;;
10114;SDS011;5097;43.260;27.812;2022-08-01T15:28:51;2.70;;;2.50;;
10114;SDS011;5097;43.260;27.812;2022-08-01T15:31:36;2.83;;;2.65;;
10114;SDS011;5097;43.260;27.812;2022-08-01T15:34:20;2.80;;;2.60;;
10114;SDS011;5097;43.260;27.812;2022-08-01T15:37:04;2.85;;;2.65;;
10114;SDS011;5097;43.260;27.812;2022-08-01T15:39:49;4.25;;;2.58;;
10114;SDS011;5097;43.260;27.812;2022-08-01T15:42:37;2.88;;;2.67;;
10114;SDS011;5097;43.260;27.812;2022-08-01T15:45:22;3.03;;;2.83;;
10114;SDS011;5097;43.260;27.812;2022-08-01T15:48:27;2.90;;;2.70;;
10114;SDS011;5097;43.260;27.812;2022-08-01T15:51:11;3.00;;;2.80;;
10114;SDS011;5097;43.260;27.812;2022-08-01T15:53:55;5.60;;;3.42;;
10114;SDS011;5097;43.260;27.812;2022-08-01T15:56:39;4.72;;;3.75;;
10114;SDS011;5097;43.260;27.812;2022-08-01T15:59:23;3.40;;;3.20;;
10114;SDS011;5097;43.260;27.812;2022-08-01T16:02:07;3.38;;;3.15;;
10114;SDS011;5097;43.260;27.812;2022-08-01T16:04:53;3.53;;;3.22;;
10114;SDS011;5097;43.260;27.812;2022-08-01T16:07:37;3.08;;;2.88;;
10114;SDS011;5097;43.260;27.812;2022-08-01T16:10:42;3.15;;;2.95;;
10114;SDS011;5097;43.260;27.812;2022-08-01T16:13:26;3.13;;;2.92;;
10114;SDS011;5097;43.260;27.812;2022-08-01T16:16:10;3.33;;;3.13;;
10114;SDS011;5097;43.260;27.812;2022-08-01T16:18:55;3.50;;;3.00;;
10114;SDS011;5097;43.260;27.812;2022-08-01T16:21:40;3.10;;;2.90;;
10114;SDS011;5097;43.260;27.812;2022-08-01T16:24:28;3.10;;;2.90;;
10114;SDS011;5097;43.260;27.812;2022-08-01T16:27:13;4.45;;;3.10;;
10114;SDS011;5097;43.260;27.812;2022-08-01T16:29:57;3.83;;;2.95;;
10114;SDS011;5097;43.260;27.812;2022-08-01T16:32:41;3.42;;;2.95;;
10114;SDS011;5097;43.260;27.812;2022-08-01T16:35:34;3.15;;;2.95;;
10114;SDS011;5097;43.260;27.812;2022-08-01T16:38:22;2.50;;;2.30;;
10114;SDS011;5097;43.260;27.812;2022-08-01T16:41:06;2.30;;;2.10;;
10114;SDS011;5097;43.260;27.812;2022-08-01T16:44:01;2.80;;;2.60;;
10114;SDS011;5097;43.260;27.812;2022-08-01T16:46:47;2.60;;;2.50;;
10114;SDS011;5097;43.260;27.812;2022-08-01T16:49:32;2.78;;;2.58;;
10114;SDS011;5097;43.260;27.812;2022-08-01T16:52:16;3.30;;;2.17;;
10114;SDS011;5097;43.260;27.812;2022-08-01T16:55:02;2.42;;;2.30;;
10114;SDS011;5097;43.260;27.812;2022-08-01T16:57:46;2.85;;;2.67;;
10114;SDS011;5097;43.260;27.812;2022-08-01T17:00:30;2.38;;;2.28;;